Weekends aéronautiques.


Loading...

Découvrez nos événements toute l'année.

Social Wall.

Suivez-nous sur les réseaux sociaux comme Facebook et Instagram pour découvrir des actualités inédites !

Facebook.
Comments Box SVG iconsUsed for the like, share, comment, and reaction icons
4 days ago

On s’en lassera jamais 🌤️
.
.
#volenaviondechasse #fighterjet #baptemedelair #discoveryflight #l39albatros #aviationlovers #pilotedechasse #highspeed #aviation #pilot #aviationlovers #aircraft #aviationphotography #pilotlife #aviationgeek #instaplane #Avion #instapilot #pilots #reims #militaryaviation #pilotsofinstagram #fighterpilot #pilotlifestyle #pilottraining #Jetfighter #aviondechasse #meetingaerien #l39albatros #flyandfun
... Voir plusVoir moins

6 CommentairesComment on Facebook

Au Top en On top ;-)

Fantastique

J en rêvais la Fly la fais pour moi ..

Merveilleux 🤩😍

Percer la couche !!.

Sympa la vue du bureau !

View more comments

2 weeks ago

Photos de la publication de Meeting Aérien International du Grand Est ... Voir plusVoir moins

Image attachmentImage attachment

2 CommentairesComment on Facebook

Super que les vents d'Est vous amènent en mer d'Ivoire.A bientôt 🤙🤙🤙🤙🤙

Et dans l’ouest , c’est pour quand 😁 signé une grande fan 🤩

METAR :

LFQA 151500Z AUTO 30018KT 3000 RA BR FEW021/// SCT035/// ///CB 07/06 Q1010


vue en direct sur l'aérodrome
facturation mentions légales politique de confidentialité
Cochet Concept
cx